KPWK/PWK METAR and TAF weather

Enter ICAO airport designator
Station Type Date Time Source
KPWK METAR 2019/04/18 22:52 UTC NOAA

KPWK 182252Z 33010G18KT 10SM OVC021 09/04 A2975 RMK AO2 PRESRR SLP075 T00890039


Station Type Date Time Source
KPWK Decoded METAR 2019/04/18 22:52 UTC NOAA

CHICAGO EXECUTIVE AIRPORT, IL, United States (KPWK) 42-07N 087-54W 203M
Apr 18, 2019 - 06:52 PM EDT / 2019.04.18 2252 UTC
Wind: from the NNW (330 degrees) at 12 MPH (10 KT) gusting to 21 MPH (18 KT):0
Visibility: 10 mile(s):0
Sky conditions: overcast
Temperature: 48.0 F (8.9 C)
Dew Point: 39.0 F (3.9 C)
Relative Humidity: 70%
Pressure (altimeter): 29.75 in. Hg (1007 hPa)
Pressure tendency: rising rapidly
ob: KPWK 182252Z 33010G18KT 10SM OVC021 09/04 A2975 RMK AO2 PRESRR SLP075 T00890039
cycle: 23

Station Type Date Time Source
KPWK TAF UTC NOAA

Error!

Example: see airport list